Baghdad, Iraq

7:29 AM AST on July 30, 2015 (GMT +0300)
Baghdad | | Change Station
CLOSE
Current Station
Airport
Location: Baghdad,
Elevation: 112 ft
Nearby Weather Stations

Elev 112 ft 33.25 °N, 44.23 °E | Updated 34 minutes ago

Smoke
Smoke Haze
93 °F
Feels Like 93 °F
N
6
Wind Variable Wind from Variable

Today
High -- | Low -- °F
--% Chance of Precip.
Yesterday
High -- | Low -- °F
Precip. -- in
5:14 AM 7:04 PM
Waxing Gibbous, 98% visible
Pressure 29.50 in
Visibility 5.0 miles
Clouds Clear
Dew Point 37 °F
Humidity 14%
Rainfall 0.00 in
Snow Depth Not available.
UV 1 out of 12
Pollen Not available.
Air Quality Not available.
Flu Activity Not available.
METAR KQTZ 300355Z VRB05KT 8000 FU HZ CLR 34/03 A2951 RMK SLP990 WND DATA ESTMD ALSTG/SLP ESTMD

More Conditions Fewer Conditions

Pressure 29.50 in
Visibility 5.0 miles
Clouds Clear
Dew Point 37 °F
Humidity 14%
Rainfall 0.00 in
Snow Depth Not available.
UV 1 out of 12
Pollen Not available.
Air Quality Not available.
Flu Activity Not available.
METAR KQTZ 300355Z VRB05KT 8000 FU HZ CLR 34/03 A2951 RMK SLP990 WND DATA ESTMD ALSTG/SLP ESTMD

More Conditions Fewer Conditions

10-Day Weather Forecast

×

Almanac

Astronomy

Jul. 30, 2015 Rise Set
Actual Time
Civil Twilight
Nautical Twilight
Astronomical Twilight
Moon
Length of Visible Light
Length of Day
Tomorrow will be .
, % of the Moon is Illuminated

Today's Extremes

Country Highs Country Lows

Community

WunderPhotos

Upload Photos

1,842,303 photos uploaded!

WunderBlogs® & News

Nearby

Air Quality

  Air Quality AQ Index Pollutant
Not available.

Snow Depth

Station Depth Elevation

Earthquake Activity

City Distance Mag. Time & Date
Minimum magnitude displayed is 2.5.

Coastal Water Temperatures

Place Temperature

Stations

Nearby Weather Stations

Station Location Temp. Windchill Dew Point Humidity Wind Precip. Elev Updated Type